Time;durP1;ratioP1;P1;durP2;ratioP2;P2;SDS_P1;SDS_P2;PMS_P1;PMS_P2;Temp;Humidity;BMP_temperature;BMP_pressure;BME280_temperature;BME280_humidity;BME280_pressure;Samples;Min_cycle;Max_cycle;Signal;HPM_P1;HPM_P2
2023/02/10 00:00:31;;;;;;;7.90;4.05;;;;;;;;;;4982864;28;20049;-64
2023/02/10 00:03:01;;;;;;;8.27;3.67;;;;;;;;;;5016942;28;20056;-65
2023/02/10 00:05:32;;;;;;;11.07;5.25;;;;;;;;;;5053360;28;20056;-64
2023/02/10 00:08:01;;;;;;;7.97;4.70;;;;;;;;;;5034734;28;20056;-64
2023/02/10 00:10:31;;;;;;;8.55;4.03;;;;;;;;;;5052108;28;20052;-64
2023/02/10 00:13:01;;;;;;;8.57;4.28;;;;;;;;;;4992018;28;20042;-64
2023/02/10 00:15:31;;;;;;;7.45;3.55;;;;;;;;;;5006866;28;20062;-64
2023/02/10 00:18:01;;;;;;;9.77;3.25;;;;;;;;;;5011919;28;20530;-64
2023/02/10 00:20:31;;;;;;;8.68;3.17;;;;;;;;;;5033109;28;20435;-64
2023/02/10 00:23:02;;;;;;;6.35;3.15;;;;;;;;;;5071414;28;20052;-65
2023/02/10 00:25:32;;;;;;;10.57;3.30;;;;;;;;;;5041691;28;20055;-65
2023/02/10 00:28:02;;;;;;;6.82;3.58;;;;;;;;;;5051370;28;20056;-65
2023/02/10 00:30:33;;;;;;;7.97;3.67;;;;;;;;;;5003235;28;20057;-64
2023/02/10 00:33:04;;;;;;;6.63;3.22;;;;;;;;;;5051091;28;20534;-64
2023/02/10 00:35:36;;;;;;;8.85;3.15;;;;;;;;;;5031323;28;20053;-64
2023/02/10 00:38:06;;;;;;;8.13;4.18;;;;;;;;;;5031039;28;20398;-64
2023/02/10 00:40:36;;;;;;;9.52;3.90;;;;;;;;;;5031353;28;20061;-64
2023/02/10 00:43:06;;;;;;;10.52;4.10;;;;;;;;;;5015518;28;20054;-65
2023/02/10 00:45:36;;;;;;;7.88;3.90;;;;;;;;;;5066102;28;20059;-64
2023/02/10 00:48:06;;;;;;;9.02;3.95;;;;;;;;;;5091010;28;20388;-64
2023/02/10 00:50:36;;;;;;;7.55;3.63;;;;;;;;;;5090962;28;20052;-64
2023/02/10 00:53:06;;;;;;;10.30;4.32;;;;;;;;;;5072883;28;20052;-65
2023/02/10 00:55:36;;;;;;;8.02;4.50;;;;;;;;;;5086403;28;20052;-64
2023/02/10 00:58:06;;;;;;;7.43;3.58;;;;;;;;;;5070831;28;20110;-64
2023/02/10 01:00:37;;;;;;;8.52;3.70;;;;;;;;;;5072116;28;20063;-64
2023/02/10 01:03:09;;;;;;;6.65;3.42;;;;;;;;;;4970483;28;20044;-64
2023/02/10 01:05:39;;;;;;;5.53;3.22;;;;;;;;;;5001021;28;20083;-65
2023/02/10 01:08:09;;;;;;;9.57;3.53;;;;;;;;;;5050746;28;20060;-65
2023/02/10 01:10:41;;;;;;;8.73;3.95;;;;;;;;;;5061025;28;20757;-65
2023/02/10 01:13:12;;;;;;;10.32;3.45;;;;;;;;;;5070360;28;20052;-65
2023/02/10 01:15:47;;;;;;;12.32;4.00;;;;;;;;;;5070676;28;20071;-64
2023/02/10 01:18:17;;;;;;;6.93;3.13;;;;;;;;;;5050375;28;20400;-65
2023/02/10 01:20:47;;;;;;;8.38;3.65;;;;;;;;;;5034260;28;20049;-65
2023/02/10 01:23:17;;;;;;;6.72;3.15;;;;;;;;;;5049927;28;20045;-64
2023/02/10 01:25:47;;;;;;;6.75;3.25;;;;;;;;;;5050417;28;20061;-64
2023/02/10 01:28:17;;;;;;;6.88;3.63;;;;;;;;;;5066936;28;20119;-64
2023/02/10 01:30:47;;;;;;;9.05;3.50;;;;;;;;;;5070274;28;20547;-65
2023/02/10 01:33:17;;;;;;;7.10;3.63;;;;;;;;;;5036867;28;20052;-65
2023/02/10 01:35:48;;;;;;;6.50;3.45;;;;;;;;;;5070268;28;20056;-65
2023/02/10 01:38:17;;;;;;;7.20;3.30;;;;;;;;;;5069737;28;20052;-64
2023/02/10 01:40:49;;;;;;;6.35;3.25;;;;;;;;;;5046765;28;20048;-64
2023/02/10 01:43:20;;;;;;;6.97;3.33;;;;;;;;;;5039783;28;20403;-65
2023/02/10 01:45:50;;;;;;;11.27;3.30;;;;;;;;;;5090132;28;20415;-64
2023/02/10 01:48:21;;;;;;;7.45;3.22;;;;;;;;;;5039440;28;20508;-64
2023/02/10 01:51:00;;;;;;;9.30;3.63;;;;;;;;;;5049431;28;20049;-64
2023/02/10 01:53:31;;;;;;;7.03;3.53;;;;;;;;;;5049657;28;20064;-65
2023/02/10 01:56:02;;;;;;;5.32;2.97;;;;;;;;;;5013040;28;20053;-66
2023/02/10 01:58:34;;;;;;;7.57;2.80;;;;;;;;;;5039645;28;20053;-65
2023/02/10 02:01:04;;;;;;;8.25;2.90;;;;;;;;;;5012899;28;20049;-65
2023/02/10 02:03:35;;;;;;;7.97;2.95;;;;;;;;;;5012984;28;20053;-65
2023/02/10 02:06:05;;;;;;;6.47;3.03;;;;;;;;;;5029704;28;20053;-65
2023/02/10 02:08:38;;;;;;;5.97;3.38;;;;;;;;;;4970289;28;20051;-65
2023/02/10 02:11:18;;;;;;;7.70;3.10;;;;;;;;;;4970903;28;20494;-65
2023/02/10 02:13:58;;;;;;;5.07;2.65;;;;;;;;;;4970372;28;20051;-65
2023/02/10 02:16:48;;;;;;;5.78;2.97;;;;;;;;;;4970943;28;20507;-65
2023/02/10 02:20:40;;;;;;;6.20;3.03;;;;;;;;;;4970011;28;20465;-65
2023/02/10 02:22:57;;;;;;;6.30;2.63;;;;;;;;;;4970635;28;20059;-65
2023/02/10 02:25:31;;;;;;;6.03;3.03;;;;;;;;;;4938490;28;20063;-65
2023/02/10 02:28:08;;;;;;;6.38;2.90;;;;;;;;;;4976534;28;20050;-65
2023/02/10 02:30:51;;;;;;;7.05;2.75;;;;;;;;;;4973689;28;20050;-65
2023/02/10 02:33:46;;;;;;;11.32;3.28;;;;;;;;;;4973787;28;20062;-65
2023/02/10 02:36:28;;;;;;;10.70;3.22;;;;;;;;;;4941646;28;20054;-65
2023/02/10 02:39:00;;;;;;;5.95;3.08;;;;;;;;;;5015264;28;20057;-65
2023/02/10 02:41:32;;;;;;;7.63;3.38;;;;;;;;;;5028119;28;20124;-65
2023/02/10 02:44:06;;;;;;;8.35;3.03;;;;;;;;;;5028846;28;20046;-65
2023/02/10 02:47:09;;;;;;;8.65;3.10;;;;;;;;;;5028937;28;20433;-65
2023/02/10 02:50:06;;;;;;;7.03;2.83;;;;;;;;;;4971588;28;20502;-65
2023/02/10 02:53:09;;;;;;;6.80;2.97;;;;;;;;;;4994922;28;20061;-65
2023/02/10 02:55:51;;;;;;;5.78;2.55;;;;;;;;;;5008769;28;20060;-65
2023/02/10 02:58:45;;;;;;;5.82;2.95;;;;;;;;;;4991968;28;20502;-65
2023/02/10 03:01:24;;;;;;;6.60;2.60;;;;;;;;;;4976364;28;20580;-65
2023/02/10 03:03:57;;;;;;;5.82;3.22;;;;;;;;;;4960566;28;20065;-65
2023/02/10 03:06:27;;;;;;;8.00;2.75;;;;;;;;;;4960458;28;20441;-65
2023/02/10 03:08:57;;;;;;;9.70;3.20;;;;;;;;;;5008925;28;20387;-65
2023/02/10 03:11:27;;;;;;;6.18;2.88;;;;;;;;;;5009009;28;20058;-65
2023/02/10 03:13:57;;;;;;;8.02;3.03;;;;;;;;;;4989502;28;20051;-65
2023/02/10 03:16:27;;;;;;;10.98;3.50;;;;;;;;;;4992627;28;20065;-65
2023/02/10 03:18:58;;;;;;;5.50;2.78;;;;;;;;;;4985459;28;20123;-65
2023/02/10 03:21:28;;;;;;;7.70;2.90;;;;;;;;;;4956397;28;20057;-65
2023/02/10 03:24:00;;;;;;;7.97;2.80;;;;;;;;;;4976929;28;20058;-65
2023/02/10 03:26:30;;;;;;;8.65;3.05;;;;;;;;;;4977730;28;20050;-65
2023/02/10 03:29:01;;;;;;;5.03;2.70;;;;;;;;;;4993013;28;20046;-65
2023/02/10 03:31:31;;;;;;;6.95;3.22;;;;;;;;;;5001232;28;20049;-65
2023/02/10 03:34:01;;;;;;;6.18;2.72;;;;;;;;;;5059994;28;20428;-65
2023/02/10 03:36:33;;;;;;;6.18;2.90;;;;;;;;;;5072424;28;20052;-65
2023/02/10 03:39:04;;;;;;;10.55;3.13;;;;;;;;;;5072577;28;20386;-65
2023/02/10 03:41:35;;;;;;;6.47;3.35;;;;;;;;;;5028645;28;20696;-65
2023/02/10 03:44:06;;;;;;;9.18;3.08;;;;;;;;;;5061557;28;20491;-65
2023/02/10 03:46:37;;;;;;;5.68;2.97;;;;;;;;;;5096426;28;20051;-65
2023/02/10 03:49:08;;;;;;;10.77;3.13;;;;;;;;;;5096183;28;20056;-65
2023/02/10 03:51:38;;;;;;;11.18;2.88;;;;;;;;;;5114138;28;20051;-65
2023/02/10 03:54:08;;;;;;;7.22;2.85;;;;;;;;;;5095968;28;20055;-65
2023/02/10 03:56:38;;;;;;;5.65;3.35;;;;;;;;;;5079051;28;20039;-65
2023/02/10 03:59:09;;;;;;;6.68;3.00;;;;;;;;;;5115196;28;20403;-65
2023/02/10 04:01:40;;;;;;;5.85;2.75;;;;;;;;;;5114507;28;20042;-65
2023/02/10 04:04:11;;;;;;;6.43;2.78;;;;;;;;;;5115163;28;20580;-65
2023/02/10 04:06:41;;;;;;;5.78;3.10;;;;;;;;;;5097159;28;20612;-65
2023/02/10 04:09:10;;;;;;;5.80;3.08;;;;;;;;;;5114981;28;20058;-65
2023/02/10 04:11:41;;;;;;;6.90;3.05;;;;;;;;;;5114742;28;20047;-65
2023/02/10 04:14:12;;;;;;;8.55;3.10;;;;;;;;;;5044875;28;20118;-65
2023/02/10 04:17:02;;;;;;;8.93;2.95;;;;;;;;;;5031635;28;20069;-65
2023/02/10 04:19:32;;;;;;;9.48;3.38;;;;;;;;;;5031828;28;20049;-65
2023/02/10 04:22:02;;;;;;;5.28;3.08;;;;;;;;;;5031862;28;20046;-65
2023/02/10 04:24:32;;;;;;;8.38;3.35;;;;;;;;;;5068243;28;20056;-65
2023/02/10 04:27:02;;;;;;;8.68;2.72;;;;;;;;;;5054438;28;20071;-65
2023/02/10 04:29:38;;;;;;;6.57;2.55;;;;;;;;;;5071305;28;20531;-65
2023/02/10 04:32:08;;;;;;;13.38;3.35;;;;;;;;;;5054898;28;20075;-66
2023/02/10 04:34:39;;;;;;;6.18;2.75;;;;;;;;;;5022595;28;20056;-65
2023/02/10 04:37:09;;;;;;;5.10;2.65;;;;;;;;;;5051460;28;20420;-65
2023/02/10 04:39:40;;;;;;;5.65;3.03;;;;;;;;;;5067346;28;20058;-65
2023/02/10 04:42:10;;;;;;;7.05;2.88;;;;;;;;;;5034442;28;20164;-65
2023/02/10 04:44:40;;;;;;;8.50;3.13;;;;;;;;;;5040784;28;20057;-65
2023/02/10 04:47:10;;;;;;;5.35;3.30;;;;;;;;;;4997992;28;20631;-65
2023/02/10 04:49:40;;;;;;;9.60;3.30;;;;;;;;;;5014636;28;20061;-65
2023/02/10 04:52:10;;;;;;;6.70;2.92;;;;;;;;;;5051006;28;20056;-65
2023/02/10 04:54:40;;;;;;;7.25;3.05;;;;;;;;;;5007259;28;20076;-65
2023/02/10 04:57:10;;;;;;;6.60;2.80;;;;;;;;;;5030809;28;20105;-65
2023/02/10 04:59:41;;;;;;;8.48;3.42;;;;;;;;;;5047402;28;20049;-65
2023/02/10 05:02:12;;;;;;;11.00;3.25;;;;;;;;;;5030913;28;20405;-65
2023/02/10 05:04:42;;;;;;;7.70;2.83;;;;;;;;;;5038984;28;20064;-65
2023/02/10 05:07:13;;;;;;;10.35;3.03;;;;;;;;;;5050552;28;20515;-65
2023/02/10 05:09:43;;;;;;;7.35;3.22;;;;;;;;;;5050857;28;20072;-65
2023/02/10 05:12:13;;;;;;;6.65;2.88;;;;;;;;;;4986689;28;20049;-66
2023/02/10 05:14:43;;;;;;;12.45;3.40;;;;;;;;;;5030858;28;20053;-65
2023/02/10 05:17:13;;;;;;;8.40;3.13;;;;;;;;;;4997879;28;20057;-65
2023/02/10 05:19:43;;;;;;;8.70;3.10;;;;;;;;;;5013969;28;20057;-65
2023/02/10 05:22:13;;;;;;;8.40;2.97;;;;;;;;;;5032336;28;20547;-65
2023/02/10 05:24:43;;;;;;;11.15;3.22;;;;;;;;;;5054145;28;20052;-65
2023/02/10 05:27:13;;;;;;;7.40;3.20;;;;;;;;;;5054115;28;20056;-65
2023/02/10 05:29:43;;;;;;;6.07;2.92;;;;;;;;;;5019858;28;20157;-65
2023/02/10 05:32:14;;;;;;;9.50;3.38;;;;;;;;;;5037211;28;20504;-65
2023/02/10 05:34:44;;;;;;;12.07;3.08;;;;;;;;;;5070047;28;20052;-65
2023/02/10 05:37:15;;;;;;;5.80;2.72;;;;;;;;;;5070026;28;20048;-65
2023/02/10 05:39:45;;;;;;;10.02;2.92;;;;;;;;;;5053364;28;20074;-65
2023/02/10 05:42:15;;;;;;;8.65;3.00;;;;;;;;;;5061199;28;20041;-65
2023/02/10 05:44:45;;;;;;;8.00;2.92;;;;;;;;;;5001468;28;20053;-65
2023/02/10 05:47:15;;;;;;;7.70;2.60;;;;;;;;;;5049998;28;20056;-65
2023/02/10 05:49:45;;;;;;;6.07;2.95;;;;;;;;;;5016869;28;20052;-65
2023/02/10 05:52:16;;;;;;;8.63;3.08;;;;;;;;;;5017083;28;20045;-65
2023/02/10 05:54:46;;;;;;;7.70;3.33;;;;;;;;;;5049096;28;20505;-65
2023/02/10 05:57:16;;;;;;;5.78;2.83;;;;;;;;;;5049806;28;20116;-66
2023/02/10 05:59:46;;;;;;;6.88;3.60;;;;;;;;;;5018217;28;20432;-65
2023/02/10 06:02:16;;;;;;;8.52;2.92;;;;;;;;;;5056092;28;20090;-65
2023/02/10 06:04:46;;;;;;;8.23;2.92;;;;;;;;;;5089864;28;20044;-65
2023/02/10 06:07:17;;;;;;;6.72;2.90;;;;;;;;;;5089801;28;20607;-65
2023/02/10 06:09:47;;;;;;;5.72;3.35;;;;;;;;;;5089801;28;20043;-65
2023/02/10 06:12:17;;;;;;;6.10;3.00;;;;;;;;;;5089931;28;20067;-65
2023/02/10 06:14:47;;;;;;;6.70;3.40;;;;;;;;;;5035783;28;20563;-65
2023/02/10 06:17:17;;;;;;;7.50;3.40;;;;;;;;;;5019863;28;20056;-65
2023/02/10 06:19:50;;;;;;;11.25;3.42;;;;;;;;;;5036746;28;20060;-65
2023/02/10 06:22:20;;;;;;;8.25;3.00;;;;;;;;;;5002900;28;20049;-65
2023/02/10 06:24:50;;;;;;;6.55;3.10;;;;;;;;;;5069240;28;20055;-65
2023/02/10 06:27:20;;;;;;;6.57;3.15;;;;;;;;;;5035799;28;20052;-65
2023/02/10 06:29:49;;;;;;;7.88;2.90;;;;;;;;;;5068787;28;20064;-65
2023/02/10 06:32:20;;;;;;;8.00;3.38;;;;;;;;;;5070597;28;20052;-65
2023/02/10 06:34:50;;;;;;;6.05;2.83;;;;;;;;;;5086100;28;20499;-65
2023/02/10 06:37:20;;;;;;;9.73;3.15;;;;;;;;;;5091907;28;20047;-65
2023/02/10 06:39:50;;;;;;;9.73;3.38;;;;;;;;;;5091898;28;20484;-65
2023/02/10 06:42:20;;;;;;;9.75;2.85;;;;;;;;;;5092100;28;20510;-65
2023/02/10 06:44:50;;;;;;;10.50;3.17;;;;;;;;;;5091231;28;20044;-65
2023/02/10 06:47:20;;;;;;;7.18;3.47;;;;;;;;;;5057196;28;20060;-65
2023/02/10 06:49:50;;;;;;;7.40;2.80;;;;;;;;;;5091941;28;20040;-65
2023/02/10 06:52:21;;;;;;;8.40;3.03;;;;;;;;;;5091579;28;20071;-65
2023/02/10 06:54:51;;;;;;;7.90;3.38;;;;;;;;;;5056135;28;20052;-65
2023/02/10 06:57:21;;;;;;;10.32;3.38;;;;;;;;;;5106121;28;20507;-65
2023/02/10 06:59:54;;;;;;;7.60;3.55;;;;;;;;;;5058718;28;20380;-65
2023/02/10 07:02:25;;;;;;;10.23;3.28;;;;;;;;;;5109063;28;20047;-65
2023/02/10 07:04:57;;;;;;;6.65;3.30;;;;;;;;;;5102064;28;20056;-65
2023/02/10 07:07:27;;;;;;;6.85;3.05;;;;;;;;;;5021979;28;20066;-65
2023/02/10 07:09:57;;;;;;;6.88;3.35;;;;;;;;;;5055301;28;20077;-65
2023/02/10 07:12:27;;;;;;;8.55;3.42;;;;;;;;;;5071995;28;20149;-65
2023/02/10 07:14:57;;;;;;;11.25;3.30;;;;;;;;;;5043578;28;20060;-65
2023/02/10 07:17:27;;;;;;;10.25;3.15;;;;;;;;;;5108956;28;20055;-65
2023/02/10 07:19:57;;;;;;;8.88;3.10;;;;;;;;;;5075311;28;20502;-65
2023/02/10 07:22:28;;;;;;;5.00;2.92;;;;;;;;;;5076717;28;20098;-65
2023/02/10 07:24:58;;;;;;;8.93;3.72;;;;;;;;;;5107472;28;20055;-65
2023/02/10 07:27:28;;;;;;;11.15;3.65;;;;;;;;;;5088476;28;20048;-65
2023/02/10 07:29:58;;;;;;;12.50;3.58;;;;;;;;;;5088666;28;20052;-65
2023/02/10 07:32:28;;;;;;;10.65;3.33;;;;;;;;;;5088720;28;20048;-65
2023/02/10 07:34:58;;;;;;;12.30;4.03;;;;;;;;;;5088768;28;20048;-65
2023/02/10 07:37:29;;;;;;;7.25;3.30;;;;;;;;;;5096606;28;20056;-65
2023/02/10 07:39:59;;;;;;;10.88;3.05;;;;;;;;;;5089744;28;20063;-65
2023/02/10 07:42:31;;;;;;;12.60;3.17;;;;;;;;;;5090842;28;20059;-65
2023/02/10 07:45:22;;;;;;;5.95;3.40;;;;;;;;;;5068486;28;20059;-65
2023/02/10 07:47:52;;;;;;;11.18;3.30;;;;;;;;;;5015828;28;20067;-65
2023/02/10 07:50:22;;;;;;;6.70;4.25;;;;;;;;;;5031389;28;20401;-65
2023/02/10 07:52:54;;;;;;;12.07;3.13;;;;;;;;;;5028402;28;20065;-65
2023/02/10 07:55:24;;;;;;;8.93;3.67;;;;;;;;;;5008512;28;20053;-65
2023/02/10 07:57:54;;;;;;;7.38;3.20;;;;;;;;;;5008137;28;20058;-65
2023/02/10 08:00:24;;;;;;;9.75;3.80;;;;;;;;;;4992863;28;20058;-65
2023/02/10 08:02:54;;;;;;;11.30;3.53;;;;;;;;;;5012204;28;20069;-65
2023/02/10 08:05:26;;;;;;;11.05;3.35;;;;;;;;;;5012261;28;20062;-65
2023/02/10 08:07:56;;;;;;;7.30;3.60;;;;;;;;;;4979280;28;20069;-65
2023/02/10 08:10:26;;;;;;;8.25;3.70;;;;;;;;;;5012092;28;20065;-65
2023/02/10 08:12:56;;;;;;;7.93;3.33;;;;;;;;;;4980345;28;20094;-65
2023/02/10 08:15:26;;;;;;;8.30;4.00;;;;;;;;;;5011914;28;20058;-65
2023/02/10 08:17:59;;;;;;;10.60;3.55;;;;;;;;;;5003838;28;20536;-64
2023/02/10 08:20:29;;;;;;;11.43;3.60;;;;;;;;;;4979781;28;20572;-64
2023/02/10 08:22:59;;;;;;;7.53;3.65;;;;;;;;;;5024639;28;20057;-64
2023/02/10 08:25:29;;;;;;;11.50;4.10;;;;;;;;;;5015306;28;20061;-65
2023/02/10 08:28:00;;;;;;;8.07;3.58;;;;;;;;;;5030567;28;20066;-64
2023/02/10 08:30:30;;;;;;;7.20;4.45;;;;;;;;;;5017634;28;20067;-65
2023/02/10 08:33:00;;;;;;;8.82;3.60;;;;;;;;;;5082725;28;20056;-64
2023/02/10 08:35:30;;;;;;;11.15;4.88;;;;;;;;;;5075045;28;20059;-64
2023/02/10 08:38:00;;;;;;;9.15;3.63;;;;;;;;;;5093396;28;20052;-64
2023/02/10 08:40:31;;;;;;;7.80;3.78;;;;;;;;;;5094033;28;20051;-64
2023/02/10 08:43:01;;;;;;;9.80;4.35;;;;;;;;;;5093998;28;20048;-64
2023/02/10 08:45:32;;;;;;;10.90;4.43;;;;;;;;;;5093773;28;20051;-65
2023/02/10 08:48:02;;;;;;;10.63;3.78;;;;;;;;;;5057504;28;20047;-64
2023/02/10 08:50:32;;;;;;;8.05;3.85;;;;;;;;;;5058568;28;20060;-65
2023/02/10 08:53:02;;;;;;;7.30;3.80;;;;;;;;;;5093891;28;20415;-64
2023/02/10 08:55:32;;;;;;;11.10;3.63;;;;;;;;;;5093601;28;20044;-64
2023/02/10 08:58:03;;;;;;;6.53;3.38;;;;;;;;;;5108037;28;20484;-65
2023/02/10 09:00:33;;;;;;;10.25;3.60;;;;;;;;;;5053198;28;20053;-64
2023/02/10 09:03:03;;;;;;;11.57;3.80;;;;;;;;;;5073260;28;20053;-64
2023/02/10 09:05:36;;;;;;;11.65;3.63;;;;;;;;;;5073251;28;20044;-64
2023/02/10 09:08:06;;;;;;;11.05;3.75;;;;;;;;;;5054335;28;20056;-64
2023/02/10 09:10:36;;;;;;;9.43;3.70;;;;;;;;;;5089425;28;20055;-64
2023/02/10 09:13:08;;;;;;;7.85;3.28;;;;;;;;;;5056565;28;20052;-64
2023/02/10 09:15:40;;;;;;;9.65;3.90;;;;;;;;;;5093571;28;20048;-64
2023/02/10 09:18:11;;;;;;;10.48;4.57;;;;;;;;;;5057747;28;20452;-64
2023/02/10 09:20:41;;;;;;;10.48;4.05;;;;;;;;;;5044264;28;20056;-64
2023/02/10 09:23:11;;;;;;;8.50;3.72;;;;;;;;;;5070785;28;20052;-64
2023/02/10 09:25:41;;;;;;;14.45;5.00;;;;;;;;;;5054171;28;21009;-64
2023/02/10 09:28:11;;;;;;;10.13;4.65;;;;;;;;;;5037647;28;20075;-64
2023/02/10 09:30:41;;;;;;;12.00;4.07;;;;;;;;;;5086364;28;20047;-64
2023/02/10 09:33:13;;;;;;;11.73;3.65;;;;;;;;;;5074411;28;20059;-64
2023/02/10 09:35:43;;;;;;;8.10;3.38;;;;;;;;;;5058059;28;20069;-64
2023/02/10 09:38:14;;;;;;;16.75;5.00;;;;;;;;;;5025148;28;20087;-65
2023/02/10 09:41:17;;;;;;;10.20;4.80;;;;;;;;;;5008149;28;20117;-65
2023/02/10 09:44:15;;;;;;;8.40;4.10;;;;;;;;;;5056672;28;20048;-65
2023/02/10 09:47:00;;;;;;;10.40;4.22;;;;;;;;;;5092533;28;20047;-65
2023/02/10 09:49:48;;;;;;;;;;;;;;;;;;5057587;28;20052;-65
2023/02/10 09:52:32;;;;;;;10.25;4.45;;;;;;;;;;5088178;28;19920;-65
2023/02/10 09:55:08;;;;;;;12.15;5.03;;;;;;;;;;5090387;28;20060;-65
2023/02/10 09:57:45;;;;;;;11.05;3.97;;;;;;;;;;5040186;28;20625;-65
2023/02/10 10:00:47;;;;;;;14.93;5.03;;;;;;;;;;5090267;28;20055;-65
2023/02/10 10:03:28;;;;;;;11.50;5.25;;;;;;;;;;4961363;28;20058;-65
2023/02/10 10:06:28;;;;;;;11.63;5.00;;;;;;;;;;5009936;28;20171;-65
2023/02/10 10:09:10;;;;;;;7.65;4.50;;;;;;;;;;4951509;29;20051;-65
2023/02/10 10:11:53;;;;;;;11.13;5.13;;;;;;;;;;4951845;29;20488;-65
2023/02/10 10:14:29;;;;;;;19.67;6.07;;;;;;;;;;4951575;29;20067;-65
2023/02/10 10:17:06;;;;;;;16.50;6.20;;;;;;;;;;4951747;29;20059;-65
2023/02/10 10:20:11;;;;;;;11.88;5.43;;;;;;;;;;4935797;29;20066;-65
2023/02/10 10:22:59;;;;;;;16.40;6.50;;;;;;;;;;4951309;29;20412;-65
2023/02/10 10:25:47;;;;;;;9.93;5.22;;;;;;;;;;4950949;28;20518;-65
2023/02/10 10:28:42;;;;;;;14.27;5.90;;;;;;;;;;4935066;29;20059;-65
2023/02/10 10:31:24;;;;;;;13.95;6.78;;;;;;;;;;4970826;28;20551;-65
2023/02/10 10:34:23;;;;;;;17.98;5.88;;;;;;;;;;4970403;28;20055;-65
2023/02/10 10:36:56;;;;;;;15.32;5.68;;;;;;;;;;4970665;28;20050;-65
2023/02/10 10:39:36;;;;;;;14.00;5.90;;;;;;;;;;4972473;28;20392;-65
2023/02/10 10:42:46;;;;;;;11.68;6.05;;;;;;;;;;5009319;28;20089;-65
2023/02/10 10:45:28;;;;;;;14.52;5.07;;;;;;;;;;4982731;28;20056;-66
2023/02/10 10:48:26;;;;;;;9.32;4.97;;;;;;;;;;5091627;28;20055;-65
2023/02/10 10:51:03;;;;;;;9.98;4.07;;;;;;;;;;5015896;28;20065;-65
2023/02/10 10:53:47;;;;;;;8.13;4.75;;;;;;;;;;5049163;28;20409;-66
2023/02/10 10:56:50;;;;;;;6.75;3.88;;;;;;;;;;5048905;28;20087;-65
2023/02/10 10:59:20;;;;;;;6.78;3.22;;;;;;;;;;5048978;28;20048;-66
2023/02/10 11:01:52;;;;;;;8.38;3.25;;;;;;;;;;5049090;28;20053;-66
2023/02/10 11:04:23;;;;;;;;;;;;;;;;;;5016176;28;20057;-66
2023/02/10 11:06:56;;;;;;;6.65;2.60;;;;;;;;;;5049046;28;19920;-66
2023/02/10 11:09:41;;;;;;;5.65;2.20;;;;;;;;;;5031635;28;20056;-66
2023/02/10 11:12:18;;;;;;;6.93;2.35;;;;;;;;;;5048795;28;20041;-66
2023/02/10 11:14:53;;;;;;;3.72;2.03;;;;;;;;;;5031772;28;20045;-67
2023/02/10 11:17:40;;;;;;;6.53;2.95;;;;;;;;;;5015642;28;20063;-66
2023/02/10 11:20:25;;;;;;;4.75;2.33;;;;;;;;;;5032424;28;20041;-66
2023/02/10 11:23:14;;;;;;;5.93;2.30;;;;;;;;;;5031932;28;20068;-66
2023/02/10 11:25:54;;;;;;;5.40;1.98;;;;;;;;;;5012498;28;20054;-66
2023/02/10 11:28:27;;;;;;;4.78;2.35;;;;;;;;;;5061436;28;20052;-66
2023/02/10 11:31:17;;;;;;;4.10;2.10;;;;;;;;;;5088910;28;20048;-66
2023/02/10 11:33:58;;;;;;;3.80;1.75;;;;;;;;;;5039139;28;20067;-66
2023/02/10 11:36:38;;;;;;;3.42;2.00;;;;;;;;;;5090405;28;20047;-66
2023/02/10 11:39:35;;;;;;;7.72;2.90;;;;;;;;;;5092883;28;20058;-66
2023/02/10 11:42:16;;;;;;;7.43;3.20;;;;;;;;;;5092845;28;20047;-66
2023/02/10 11:45:23;;;;;;;6.43;3.40;;;;;;;;;;5092400;28;20059;-66
2023/02/10 11:48:05;;;;;;;5.78;3.10;;;;;;;;;;4992742;28;20054;-66
2023/02/10 11:50:36;;;;;;;5.15;2.72;;;;;;;;;;4993195;28;20050;-66
2023/02/10 11:53:31;;;;;;;4.85;2.25;;;;;;;;;;4975986;28;20097;-66
2023/02/10 11:56:07;;;;;;;10.18;4.57;;;;;;;;;;4976659;28;20062;-66
2023/02/10 11:59:08;;;;;;;8.25;3.83;;;;;;;;;;4992652;28;20050;-67
2023/02/10 12:01:44;;;;;;;8.57;2.97;;;;;;;;;;4992486;28;20062;-66
2023/02/10 12:04:50;;;;;;;6.03;2.80;;;;;;;;;;4999459;28;20045;-66
2023/02/10 12:07:33;;;;;;;5.75;2.67;;;;;;;;;;5032482;28;20045;-66
2023/02/10 12:10:20;;;;;;;5.28;3.00;;;;;;;;;;4999243;28;20054;-66
2023/02/10 12:13:19;;;;;;;8.18;3.20;;;;;;;;;;5031991;28;20072;-66
2023/02/10 12:16:16;;;;;;;5.55;2.70;;;;;;;;;;4979689;28;20061;-66
2023/02/10 12:19:18;;;;;;;4.25;2.40;;;;;;;;;;5012100;28;20053;-66
2023/02/10 12:22:05;;;;;;;6.20;3.03;;;;;;;;;;4998613;28;20057;-66
2023/02/10 12:24:37;;;;;;;9.18;3.33;;;;;;;;;;5030682;28;20520;-66
2023/02/10 12:27:27;;;;;;;8.52;2.95;;;;;;;;;;5035026;28;20057;-66
2023/02/10 12:30:26;;;;;;;6.03;3.00;;;;;;;;;;5034512;28;20493;-66
2023/02/10 12:33:20;;;;;;;7.88;3.20;;;;;;;;;;5051752;28;20064;-66
2023/02/10 12:36:09;;;;;;;8.77;3.22;;;;;;;;;;5011767;28;20050;-66
2023/02/10 12:39:16;;;;;;;10.75;3.20;;;;;;;;;;4979444;28;20050;-66
2023/02/10 12:42:02;;;;;;;11.10;3.33;;;;;;;;;;4994852;28;20061;-65
2023/02/10 12:44:47;;;;;;;8.25;3.70;;;;;;;;;;5011973;28;20050;-66
2023/02/10 12:47:36;;;;;;;5.22;2.88;;;;;;;;;;4978683;28;20058;-65
2023/02/10 12:50:33;;;;;;;7.40;3.28;;;;;;;;;;5011200;28;20072;-65
2023/02/10 12:53:20;;;;;;;7.85;3.15;;;;;;;;;;5044035;28;20048;-66
2023/02/10 12:56:22;;;;;;;8.18;3.10;;;;;;;;;;5075430;28;20059;-66
2023/02/10 12:59:04;;;;;;;8.90;3.30;;;;;;;;;;5011041;28;20062;-66
2023/02/10 13:01:40;;;;;;;8.70;3.15;;;;;;;;;;5011560;28;20054;-66
2023/02/10 13:04:27;;;;;;;7.75;3.20;;;;;;;;;;5011078;28;20050;-65
2023/02/10 13:07:15;;;;;;;5.35;3.13;;;;;;;;;;4978660;28;20509;-64
2023/02/10 13:09:49;;;;;;;8.52;3.17;;;;;;;;;;4978535;28;20558;-65
2023/02/10 13:12:33;;;;;;;6.15;3.13;;;;;;;;;;5011387;28;20146;-65
2023/02/10 13:15:13;;;;;;;8.50;3.05;;;;;;;;;;5030718;28;20057;-65
2023/02/10 13:17:47;;;;;;;10.95;3.15;;;;;;;;;;4998041;28;20053;-65
2023/02/10 13:20:28;;;;;;;5.63;3.03;;;;;;;;;;5031009;28;20085;-67
2023/02/10 13:23:31;;;;;;;8.50;3.47;;;;;;;;;;5014906;28;20053;-66
2023/02/10 13:26:07;;;;;;;10.05;3.22;;;;;;;;;;4997523;28;20076;-66
2023/02/10 13:29:02;;;;;;;6.20;3.42;;;;;;;;;;4997689;28;20413;-67
2023/02/10 13:32:11;;;;;;;8.43;2.90;;;;;;;;;;5030712;28;20537;-67
2023/02/10 13:34:54;;;;;;;6.05;2.60;;;;;;;;;;4974287;28;20058;-68
2023/02/10 13:37:44;;;;;;;6.00;2.85;;;;;;;;;;5030167;28;20049;-67
2023/02/10 13:40:21;;;;;;;6.07;3.00;;;;;;;;;;4965822;28;20128;-67
2023/02/10 13:43:04;;;;;;;8.35;2.67;;;;;;;;;;5030407;28;20048;-66
2023/02/10 13:45:38;;;;;;;9.05;3.17;;;;;;;;;;5030272;28;20409;-66
2023/02/10 13:48:30;;;;;;;6.35;3.33;;;;;;;;;;4998542;28;20105;-66
2023/02/10 13:51:08;;;;;;;6.05;2.92;;;;;;;;;;4996852;28;20378;-66
2023/02/10 13:53:41;;;;;;;6.25;2.90;;;;;;;;;;5030198;28;20053;-68
2023/02/10 13:56:19;;;;;;;6.28;3.08;;;;;;;;;;4970997;28;20062;-67
2023/02/10 13:58:57;;;;;;;7.50;2.83;;;;;;;;;;4970634;28;20066;-66
2023/02/10 14:01:42;;;;;;;5.40;2.58;;;;;;;;;;4936137;29;20054;-66
2023/02/10 14:04:18;;;;;;;6.63;2.70;;;;;;;;;;4928321;28;20113;-66
2023/02/10 14:06:51;;;;;;;8.60;3.50;;;;;;;;;;4951710;29;20074;-66
2023/02/10 14:09:36;;;;;;;5.40;2.80;;;;;;;;;;4967510;28;20051;-65
2023/02/10 14:12:27;;;;;;;7.53;2.88;;;;;;;;;;5028704;28;20199;-66
2023/02/10 14:15:19;;;;;;;6.07;2.22;;;;;;;;;;5016158;28;20059;-66
2023/02/10 14:18:01;;;;;;;3.90;2.05;;;;;;;;;;5026973;28;20042;-65
2023/02/10 14:20:35;;;;;;;3.50;1.75;;;;;;;;;;4964023;28;20505;-66
2023/02/10 14:23:06;;;;;;;3.97;1.83;;;;;;;;;;4980749;28;20441;-68
2023/02/10 14:25:43;;;;;;;8.93;2.33;;;;;;;;;;4995773;28;20053;-67
2023/02/10 14:28:25;;;;;;;31.95;5.80;;;;;;;;;;5007255;28;20053;-67
2023/02/10 14:31:38;;;;;;;12.30;3.38;;;;;;;;;;5009194;28;20409;-67
2023/02/10 14:34:29;;;;;;;6.97;2.10;;;;;;;;;;4975020;28;20062;-67
2023/02/10 14:37:18;;;;;;;7.72;2.25;;;;;;;;;;4989738;28;20054;-67
2023/02/10 14:40:00;;;;;;;3.53;1.77;;;;;;;;;;4989568;28;20050;-66
2023/02/10 14:42:33;;;;;;;3.50;1.30;;;;;;;;;;4950739;28;20538;-66
2023/02/10 14:45:03;;;;;;;3.28;1.35;;;;;;;;;;4950982;28;20059;-66
2023/02/10 14:47:45;;;;;;;3.20;1.15;;;;;;;;;;4961231;28;20047;-65
2023/02/10 14:50:36;;;;;;;1.80;0.90;;;;;;;;;;4967418;28;20079;-65
2023/02/10 14:53:07;;;;;;;2.38;1.50;;;;;;;;;;4969787;28;20483;-65
2023/02/10 14:55:41;;;;;;;1.63;0.93;;;;;;;;;;4937728;28;20502;-65
2023/02/10 14:58:13;;;;;;;2.67;0.73;;;;;;;;;;4938028;28;20547;-66
2023/02/10 15:00:54;;;;;;;2.25;0.93;;;;;;;;;;4970174;28;20058;-66
2023/02/10 15:03:26;;;;;;;2.88;0.90;;;;;;;;;;4970019;28;20527;-66
2023/02/10 15:06:00;;;;;;;2.05;0.93;;;;;;;;;;4966399;28;20051;-65
2023/02/10 15:08:39;;;;;;;1.40;0.90;;;;;;;;;;4960859;28;20062;-63
2023/02/10 15:14:27;;;;;;;2.58;1.00;;;;;;;;;;5048030;28;20068;-63
2023/02/10 15:17:06;;;;;;;1.90;0.85;;;;;;;;;;5015299;28;20124;-63
2023/02/10 15:19:57;;;;;;;2.92;1.33;;;;;;;;;;5067088;28;20052;-63
2023/02/10 15:22:57;;;;;;;1.75;0.90;;;;;;;;;;5063745;28;20066;-63
2023/02/10 15:25:34;;;;;;;1.15;0.70;;;;;;;;;;5111314;28;20031;-64
2023/02/10 15:28:08;;;;;;;1.45;0.82;;;;;;;;;;5110675;28;20047;-63
2023/02/10 15:30:59;;;;;;;1.85;1.02;;;;;;;;;;5070834;28;20059;-63
2023/02/10 15:33:40;;;;;;;4.45;0.98;;;;;;;;;;5058273;28;20059;-63
2023/02/10 15:36:10;;;;;;;4.15;0.90;;;;;;;;;;5107716;28;20039;-64
2023/02/10 15:39:02;;;;;;;2.25;1.40;;;;;;;;;;5074917;28;20062;-63